createdAt,value
2022-09-01T00:00:15.379Z,0.00
2022-09-01T00:01:15.483Z,0.00
2022-09-01T00:02:15.695Z,0.00
2022-09-01T00:03:15.755Z,0.00
2022-09-01T00:04:16.105Z,0.00
2022-09-01T00:05:15.996Z,0.00
2022-09-01T00:06:16.153Z,0.00
2022-09-01T00:07:16.255Z,0.00
2022-09-01T00:08:18.461Z,0.00
2022-09-01T00:09:16.523Z,0.00
2022-09-01T00:10:16.574Z,0.00
2022-09-01T00:11:16.664Z,0.00
2022-09-01T00:12:16.813Z,0.00
2022-09-01T00:13:16.914Z,0.00
2022-09-01T00:14:29.481Z,0.00
2022-09-01T00:15:18.183Z,0.00
2022-09-01T00:16:17.248Z,0.00
2022-09-01T00:17:17.321Z,0.00
2022-09-01T00:18:17.503Z,0.00
2022-09-01T00:19:17.703Z,0.00
2022-09-01T00:20:20.543Z,0.00
2022-09-01T00:21:17.843Z,0.00
2022-09-01T00:22:17.941Z,0.00
2022-09-01T00:23:18.092Z,0.00
2022-09-01T00:24:18.306Z,0.00
2022-09-01T00:25:18.421Z,0.00
2022-09-01T00:26:18.425Z,0.00
2022-09-01T00:27:18.536Z,0.00
2022-09-01T00:28:18.868Z,0.00
2022-09-01T00:29:18.841Z,0.00
2022-09-01T00:30:19.057Z,0.00
2022-09-01T00:31:19.136Z,0.00
2022-09-01T00:32:19.172Z,0.00
2022-09-01T00:33:19.270Z,0.00
2022-09-01T00:34:19.479Z,0.00
2022-09-01T00:35:19.518Z,0.00
2022-09-01T00:36:19.680Z,0.00
2022-09-01T00:37:19.777Z,0.00
2022-09-01T00:38:20.301Z,0.00
2022-09-01T00:39:20.210Z,0.00
2022-09-01T00:40:20.427Z,0.00
2022-09-01T00:41:20.319Z,0.00
2022-09-01T00:42:20.429Z,0.00
2022-09-01T00:43:20.529Z,0.00
2022-09-01T00:44:20.789Z,0.00
2022-09-01T00:45:20.918Z,0.00
2022-09-01T00:46:20.906Z,0.00
2022-09-01T00:47:21.045Z,0.00
2022-09-01T00:48:21.299Z,0.00
2022-09-01T00:49:21.277Z,0.00
2022-09-01T00:50:21.524Z,0.00
2022-09-01T00:51:21.585Z,0.00
2022-09-01T00:52:21.688Z,0.00
2022-09-01T00:53:21.836Z,0.00
2022-09-01T00:54:21.948Z,0.00
2022-09-01T00:55:22.096Z,0.00
2022-09-01T00:56:22.196Z,0.00
2022-09-01T00:57:22.285Z,0.00
2022-09-01T00:58:22.488Z,0.00
2022-09-01T00:59:22.563Z,0.00
2022-09-01T01:00:22.975Z,0.00
2022-09-01T01:01:22.910Z,0.00
2022-09-01T01:02:23.058Z,0.00
2022-09-01T01:03:23.114Z,0.00
2022-09-01T01:04:23.256Z,0.00
2022-09-01T01:05:23.487Z,0.00
2022-09-01T01:06:23.484Z,0.00
2022-09-01T01:07:23.585Z,0.00
2022-09-01T01:08:23.804Z,0.00
2022-09-01T01:09:23.864Z,0.00
2022-09-01T01:10:23.974Z,0.00
2022-09-01T01:11:24.240Z,0.00
2022-09-01T01:12:24.192Z,0.00
2022-09-01T01:13:24.290Z,0.00
2022-09-01T01:14:24.382Z,0.00
2022-09-01T01:15:24.520Z,0.00
2022-09-01T01:16:24.742Z,0.00
2022-09-01T01:17:24.773Z,0.00
2022-09-01T01:18:24.913Z,0.00
2022-09-01T01:19:25.071Z,0.00
2022-09-01T01:20:25.160Z,0.00
2022-09-01T01:21:25.332Z,0.00
2022-09-01T01:22:25.381Z,0.00
2022-09-01T01:23:25.472Z,0.00
2022-09-01T01:24:25.615Z,0.00
2022-09-01T01:25:25.721Z,0.00
2022-09-01T01:26:25.957Z,0.00
2022-09-01T01:27:26.037Z,0.00
2022-09-01T01:28:26.080Z,0.00
2022-09-01T01:29:26.228Z,0.00
2022-09-01T01:30:26.372Z,0.00
2022-09-01T01:31:26.714Z,0.00
2022-09-01T01:32:26.788Z,0.00
2022-09-01T01:33:26.730Z,0.00
2022-09-01T01:34:26.841Z,0.00
2022-09-01T01:35:26.979Z,0.00
2022-09-01T01:36:27.308Z,0.00
2022-09-01T01:37:27.187Z,0.00
2022-09-01T01:38:27.398Z,0.00
2022-09-01T01:39:27.433Z,0.00
2022-09-01T01:40:27.616Z,0.00
2022-09-01T01:41:27.808Z,0.00
2022-09-01T01:42:27.860Z,0.00
2022-09-01T01:43:27.948Z,0.00
2022-09-01T01:44:28.105Z,0.00
2022-09-01T01:45:28.208Z,0.00
2022-09-01T01:46:28.527Z,0.00
2022-09-01T01:47:28.596Z,0.00
2022-09-01T01:48:28.576Z,0.00
2022-09-01T01:49:28.676Z,0.00
2022-09-01T01:50:28.816Z,0.00
2022-09-01T01:51:28.895Z,0.00
2022-09-01T01:52:29.186Z,0.00
2022-09-01T01:53:29.125Z,0.00
2022-09-01T01:54:29.253Z,0.00
2022-09-01T01:55:29.356Z,0.00
2022-09-01T01:56:29.444Z,0.00
2022-09-01T01:57:29.715Z,0.00
2022-09-01T01:58:29.705Z,0.00
2022-09-01T01:59:29.820Z,0.00
2022-09-01T02:00:30.400Z,0.00
2022-09-01T02:01:30.125Z,0.00
2022-09-01T02:02:30.381Z,0.00
2022-09-01T02:03:30.331Z,0.00
2022-09-01T02:04:30.393Z,0.00
2022-09-01T02:05:30.532Z,0.00
2022-09-01T02:06:30.674Z,0.00
2022-09-01T02:07:32.995Z,0.00
2022-09-01T02:08:30.951Z,0.00
2022-09-01T02:09:31.032Z,0.00
2022-09-01T02:10:31.163Z,0.00
2022-09-01T02:11:31.319Z,0.00
2022-09-01T02:12:31.562Z,0.00
2022-09-01T02:13:31.621Z,0.00
2022-09-01T02:14:31.692Z,0.00
2022-09-01T02:15:31.798Z,0.00
2022-09-01T02:16:31.965Z,0.00
2022-09-01T02:17:31.991Z,0.00
2022-09-01T02:18:32.282Z,0.00
2022-09-01T02:19:32.270Z,0.00
2022-09-01T02:20:32.380Z,0.00
2022-09-01T02:21:32.521Z,0.00
2022-09-01T02:22:32.610Z,0.00
2022-09-01T02:23:32.891Z,0.00
2022-09-01T02:24:32.889Z,0.00
2022-09-01T02:25:32.996Z,0.00
2022-09-01T02:26:33.128Z,0.00
2022-09-01T02:27:33.278Z,0.00
2022-09-01T02:28:33.529Z,0.00
2022-09-01T02:29:33.462Z,0.00
2022-09-01T02:30:34.639Z,0.00
2022-09-01T02:31:33.705Z,0.00
2022-09-01T02:32:33.858Z,0.00
2022-09-01T02:33:34.097Z,0.00
2022-09-01T02:34:34.107Z,0.00
2022-09-01T02:35:34.199Z,0.00
2022-09-01T02:36:34.346Z,0.00
2022-09-01T02:37:34.460Z,0.00
2022-09-01T02:38:34.726Z,0.00
2022-09-01T02:39:34.666Z,0.00
2022-09-01T02:40:34.810Z,0.00
2022-09-01T02:41:34.868Z,0.00
2022-09-01T02:42:34.963Z,0.00
2022-09-01T02:43:35.176Z,0.00
2022-09-01T02:44:39.466Z,0.00
2022-09-01T02:45:36.397Z,0.00
2022-09-01T02:46:35.505Z,0.00
2022-09-01T02:47:35.597Z,0.00
2022-09-01T02:48:35.829Z,0.00
2022-09-01T02:49:35.834Z,0.00
2022-09-01T02:50:35.916Z,0.00
2022-09-01T02:51:36.049Z,0.00
2022-09-01T02:52:36.125Z,0.00
2022-09-01T02:53:36.423Z,0.00
2022-09-01T02:54:36.429Z,0.00
2022-09-01T02:55:36.556Z,0.00
2022-09-01T02:56:36.703Z,0.00
2022-09-01T02:57:36.784Z,0.00
2022-09-01T02:58:37.024Z,0.00
2022-09-01T02:59:39.634Z,0.00
2022-09-01T03:00:38.093Z,0.00
2022-09-01T03:01:37.251Z,0.00
2022-09-01T03:02:37.342Z,0.00
2022-09-01T03:03:37.562Z,0.00
2022-09-01T03:04:37.610Z,0.00
2022-09-01T03:05:37.669Z,0.00
2022-09-01T03:06:37.821Z,0.00
2022-09-01T03:07:37.932Z,0.00
2022-09-01T03:08:38.140Z,0.00
2022-09-01T03:09:38.251Z,0.00
2022-09-01T03:10:38.310Z,0.00
2022-09-01T03:11:38.408Z,0.00
2022-09-01T03:12:38.540Z,0.00
2022-09-01T03:13:38.819Z,0.00
2022-09-01T03:14:38.800Z,0.00
2022-09-01T03:15:38.929Z,0.00
2022-09-01T03:16:39.086Z,0.00
2022-09-01T03:17:39.184Z,0.00
2022-09-01T03:18:40.069Z,0.00
2022-09-01T03:19:39.408Z,0.00
2022-09-01T03:20:39.561Z,0.00
2022-09-01T03:21:39.711Z,0.00
2022-09-01T03:22:39.887Z,0.00
2022-09-01T03:23:39.991Z,0.00
2022-09-01T03:24:40.085Z,0.00
2022-09-01T03:25:40.245Z,0.00
2022-09-01T03:26:40.368Z,0.00
2022-09-01T03:27:40.518Z,0.00
2022-09-01T03:28:40.807Z,0.00
2022-09-01T03:29:40.748Z,0.00
2022-09-01T03:30:40.897Z,0.00
2022-09-01T03:31:41.065Z,0.00
2022-09-01T03:32:41.186Z,0.00
2022-09-01T03:33:41.456Z,0.00
2022-09-01T03:34:41.442Z,0.00
2022-09-01T03:35:41.586Z,0.00
2022-09-01T03:36:41.737Z,0.00
2022-09-01T03:37:42.846Z,0.00
2022-09-01T03:38:42.174Z,0.00
2022-09-01T03:39:42.242Z,0.00
2022-09-01T03:40:42.295Z,0.00
2022-09-01T03:41:42.363Z,0.00
2022-09-01T03:42:42.463Z,0.00
2022-09-01T03:43:45.853Z,0.00
2022-09-01T03:44:42.705Z,0.00
2022-09-01T03:45:42.901Z,0.00
2022-09-01T03:46:43.075Z,0.00
2022-09-01T03:47:43.102Z,0.00
2022-09-01T03:48:43.333Z,0.00
2022-09-01T03:49:43.425Z,0.00
2022-09-01T03:50:43.433Z,0.00
2022-09-01T03:51:43.532Z,0.00
2022-09-01T03:52:43.655Z,0.00
2022-09-01T03:53:43.771Z,0.00
2022-09-01T03:54:43.936Z,0.00
2022-09-01T03:55:43.989Z,0.00
2022-09-01T03:56:44.081Z,0.00
2022-09-01T03:57:44.181Z,0.00
2022-09-01T03:58:44.323Z,0.00
2022-09-01T03:59:44.711Z,0.00
2022-09-01T04:00:48.687Z,0.00
2022-09-01T04:01:44.702Z,0.00
2022-09-01T04:02:44.800Z,0.00
2022-09-01T04:03:45.930Z,0.00
2022-09-01T04:04:45.091Z,0.00
2022-09-01T04:05:45.280Z,0.00
2022-09-01T04:06:45.278Z,0.00
2022-09-01T04:07:45.379Z,0.00
2022-09-01T04:08:45.467Z,0.00
2022-09-01T04:09:45.828Z,0.00
2022-09-01T04:10:45.729Z,0.00
2022-09-01T04:11:46.158Z,0.00
2022-09-01T04:12:45.978Z,0.00
2022-09-01T04:13:46.147Z,0.00
2022-09-01T04:14:46.422Z,0.00
2022-09-01T04:15:46.398Z,0.00
2022-09-01T04:16:46.585Z,0.00
2022-09-01T04:17:46.627Z,0.00
2022-09-01T04:18:46.737Z,0.00
2022-09-01T04:19:46.984Z,0.00
2022-09-01T04:20:47.037Z,0.00
2022-09-01T04:21:47.086Z,0.00
2022-09-01T04:22:47.229Z,0.00
2022-09-01T04:23:47.375Z,0.00
2022-09-01T04:24:47.705Z,0.00
2022-09-01T04:25:47.643Z,0.00
2022-09-01T04:26:47.755Z,0.00
2022-09-01T04:27:47.854Z,0.00
2022-09-01T04:28:48.014Z,0.00
2022-09-01T04:29:48.201Z,0.00
2022-09-01T04:30:48.403Z,0.00
2022-09-01T04:31:48.414Z,0.00
2022-09-01T04:32:48.512Z,0.00
2022-09-01T04:33:48.607Z,0.00
2022-09-01T04:34:48.903Z,0.00
2022-09-01T04:35:48.883Z,0.00
2022-09-01T04:36:50.005Z,0.00
2022-09-01T04:37:50.072Z,0.00
2022-09-01T04:38:49.215Z,0.00
2022-09-01T04:39:53.695Z,0.00
2022-09-01T04:40:50.542Z,0.00
2022-09-01T04:41:49.552Z,0.00
2022-09-01T04:42:49.642Z,5.62
2022-09-01T04:43:49.766Z,5.62
2022-09-01T04:44:49.901Z,5.62
2022-09-01T04:45:50.134Z,5.62
2022-09-01T04:46:50.140Z,5.62
2022-09-01T04:47:50.250Z,5.62
2022-09-01T04:48:50.358Z,5.62
2022-09-01T04:49:50.480Z,5.62
2022-09-01T04:50:50.711Z,11.25
2022-09-01T04:51:53.596Z,11.25
2022-09-01T04:52:50.900Z,11.25
2022-09-01T04:53:50.988Z,11.25
2022-09-01T04:54:51.089Z,16.88
2022-09-01T04:55:51.319Z,16.88
2022-09-01T04:56:51.475Z,16.88
2022-09-01T04:57:51.450Z,16.88
2022-09-01T04:58:51.609Z,22.50
2022-09-01T04:59:51.728Z,22.50
2022-09-01T05:00:52.259Z,22.50
2022-09-01T05:01:51.985Z,22.50
2022-09-01T05:02:52.071Z,22.50
2022-09-01T05:03:52.167Z,28.12
2022-09-01T05:04:52.308Z,28.12
2022-09-01T05:05:52.687Z,28.12
2022-09-01T05:06:52.535Z,28.12
2022-09-01T05:07:52.636Z,28.12
2022-09-01T05:08:52.774Z,33.75
2022-09-01T05:09:52.892Z,33.75
2022-09-01T05:10:53.171Z,33.75
2022-09-01T05:11:53.105Z,33.75
2022-09-01T05:12:53.224Z,39.38
2022-09-01T05:13:53.336Z,39.38
2022-09-01T05:14:53.455Z,39.38
2022-09-01T05:15:53.642Z,39.38
2022-09-01T05:16:53.664Z,45.00
2022-09-01T05:17:53.804Z,45.00
2022-09-01T05:18:53.964Z,45.00
2022-09-01T05:19:54.074Z,45.00
2022-09-01T05:20:54.263Z,50.62
2022-09-01T05:21:54.413Z,50.62
2022-09-01T05:22:54.403Z,50.62
2022-09-01T05:23:54.563Z,56.25
2022-09-01T05:24:55.004Z,56.25
2022-09-01T05:25:54.990Z,61.88
2022-09-01T05:26:54.920Z,61.88
2022-09-01T05:27:55.033Z,73.12
2022-09-01T05:28:55.141Z,78.75
2022-09-01T05:29:55.268Z,78.75
2022-09-01T05:30:55.452Z,84.38
2022-09-01T05:31:55.591Z,90.00
2022-09-01T05:32:55.622Z,90.00
2022-09-01T05:33:55.792Z,95.62
2022-09-01T05:34:55.890Z,101.25
2022-09-01T05:35:57.168Z,106.88
2022-09-01T05:36:56.140Z,106.88
2022-09-01T05:37:56.351Z,106.88
2022-09-01T05:38:56.357Z,112.50
2022-09-01T05:39:56.460Z,112.50
2022-09-01T05:40:56.599Z,118.12
2022-09-01T05:41:56.719Z,118.12
2022-09-01T05:42:56.930Z,123.75
2022-09-01T05:44:00.527Z,129.38
2022-09-01T05:44:57.099Z,129.38
2022-09-01T05:46:06.647Z,135.00
2022-09-01T05:46:58.413Z,135.00
2022-09-01T05:47:57.687Z,140.62
2022-09-01T05:48:57.635Z,140.62
2022-09-01T05:49:57.718Z,146.25
2022-09-01T05:50:57.818Z,146.25
2022-09-01T05:51:57.957Z,151.88
2022-09-01T05:52:58.211Z,151.88
2022-09-01T05:53:58.297Z,157.50
2022-09-01T05:54:58.367Z,157.50
2022-09-01T05:55:58.466Z,163.12
2022-09-01T05:57:05.137Z,163.12
2022-09-01T05:57:59.825Z,168.75
2022-09-01T05:59:59.944Z,174.38
2022-09-01T06:00:59.071Z,174.38
2022-09-01T06:01:59.317Z,174.38
2022-09-01T06:02:59.420Z,180.00
2022-09-01T06:03:59.526Z,180.00
2022-09-01T06:04:59.516Z,185.62
2022-09-01T06:05:59.616Z,185.62
2022-09-01T06:07:08.419Z,191.25
2022-09-01T06:08:00.892Z,191.25
2022-09-01T06:09:00.204Z,196.88
2022-09-01T06:10:00.227Z,196.88
2022-09-01T06:11:00.274Z,202.50
2022-09-01T06:12:00.423Z,202.50
2022-09-01T06:13:00.641Z,208.12
2022-09-01T06:14:00.745Z,208.12
2022-09-01T06:15:00.743Z,213.75
2022-09-01T06:16:00.899Z,213.75
2022-09-01T06:17:01.093Z,219.38
2022-09-01T06:18:01.123Z,225.00
2022-09-01T06:19:01.285Z,225.00
2022-09-01T06:20:01.463Z,230.62
2022-09-01T06:21:01.464Z,230.62
2022-09-01T06:22:01.586Z,236.25
2022-09-01T06:23:01.696Z,236.25
2022-09-01T06:24:01.915Z,241.88
2022-09-01T06:25:02.975Z,247.50
2022-09-01T06:26:02.052Z,253.12
2022-09-01T06:27:02.172Z,258.75
2022-09-01T06:28:02.264Z,264.38
2022-09-01T06:29:02.442Z,270.00
2022-09-01T06:30:02.491Z,270.00
2022-09-01T06:31:02.621Z,270.00
2022-09-01T06:32:02.723Z,270.00
2022-09-01T06:33:02.909Z,270.00
2022-09-01T06:34:03.055Z,281.25
2022-09-01T06:35:03.291Z,281.25
2022-09-01T06:36:03.293Z,281.25
2022-09-01T06:37:03.415Z,281.25
2022-09-01T06:38:03.516Z,286.88
2022-09-01T06:39:03.682Z,286.88
2022-09-01T06:40:03.810Z,286.88
2022-09-01T06:41:03.844Z,292.50
2022-09-01T06:42:06.057Z,298.12
2022-09-01T06:43:04.031Z,303.75
2022-09-01T06:44:04.330Z,303.75
2022-09-01T06:45:04.490Z,303.75
2022-09-01T06:46:04.437Z,303.75
2022-09-01T06:47:04.580Z,303.75
2022-09-01T06:48:04.647Z,309.38
2022-09-01T06:49:04.868Z,309.38
2022-09-01T06:50:04.910Z,309.38
2022-09-01T06:51:21.862Z,315.00
2022-09-01T06:52:06.373Z,320.62
2022-09-01T06:54:10.852Z,326.25
2022-09-01T06:55:07.879Z,326.25
2022-09-01T06:56:05.641Z,337.50
2022-09-01T06:58:07.166Z,348.75
2022-09-01T06:59:06.340Z,354.38
2022-09-01T07:00:06.116Z,354.38
2022-09-01T07:01:06.287Z,354.38
2022-09-01T07:02:06.448Z,348.75
2022-09-01T07:03:06.517Z,343.12
2022-09-01T07:04:12.776Z,354.38
2022-09-01T07:05:07.799Z,360.00
2022-09-01T07:06:06.951Z,360.00
2022-09-01T07:08:08.187Z,365.62
2022-09-01T07:10:23.727Z,393.75
2022-09-01T07:12:08.911Z,399.38
2022-09-01T07:12:25.088Z,399.38
2022-09-01T07:13:08.766Z,393.75
2022-09-01T07:14:15.859Z,388.12
2022-09-01T07:17:24.567Z,393.75
2022-09-01T07:18:09.387Z,399.38
2022-09-01T07:19:08.497Z,405.00
2022-09-01T07:20:24.480Z,410.62
2022-09-01T07:21:38.786Z,410.62
2022-09-01T07:22:35.254Z,410.62
2022-09-01T07:23:09.991Z,416.25
2022-09-01T07:24:10.713Z,421.88
2022-09-01T07:25:11.769Z,416.25
2022-09-01T07:26:09.414Z,416.25
2022-09-01T07:27:09.625Z,416.25
2022-09-01T07:28:09.595Z,410.62
2022-09-01T07:29:09.705Z,410.62
2022-09-01T07:30:09.826Z,410.62
2022-09-01T07:35:11.569Z,421.88
2022-09-01T07:36:26.860Z,421.88
2022-09-01T07:42:59.454Z,376.88
2022-09-01T07:43:12.424Z,438.75
2022-09-01T07:44:11.554Z,438.75
2022-09-01T07:45:28.014Z,450.00
2022-09-01T07:47:51.786Z,450.00
2022-09-01T07:48:36.093Z,455.62
2022-09-01T07:50:37.505Z,466.88
2022-09-01T07:52:13.699Z,478.12
2022-09-01T07:53:12.918Z,472.50
2022-09-01T07:54:12.833Z,483.75
2022-09-01T07:55:12.943Z,489.38
2022-09-01T07:56:13.054Z,495.00
2022-09-01T07:57:13.401Z,495.00
2022-09-01T07:58:13.308Z,500.62
2022-09-01T07:59:15.344Z,506.25
2022-09-01T08:00:13.492Z,511.88
2022-09-01T08:01:13.592Z,528.75
2022-09-01T08:02:13.985Z,534.38
2022-09-01T08:03:14.002Z,545.62
2022-09-01T08:04:13.962Z,556.88
2022-09-01T08:05:14.054Z,568.12
2022-09-01T08:06:14.234Z,601.88
2022-09-01T08:07:15.960Z,613.12
2022-09-01T08:08:24.998Z,630.00
2022-09-01T08:09:32.812Z,652.50
2022-09-01T08:10:20.296Z,663.75
2022-09-01T08:11:14.812Z,669.38
2022-09-01T08:12:14.905Z,675.00
2022-09-01T08:13:15.707Z,686.25
2022-09-01T08:14:18.272Z,697.50
2022-09-01T08:15:40.409Z,714.38
2022-09-01T08:16:16.425Z,736.88
2022-09-01T08:17:18.003Z,753.75
2022-09-01T08:18:16.724Z,776.25
2022-09-01T08:19:16.924Z,804.38
2022-09-01T08:20:15.910Z,821.25
2022-09-01T08:21:16.002Z,855.00
2022-09-01T08:22:16.461Z,900.00
2022-09-01T08:23:16.313Z,922.50
2022-09-01T08:24:16.440Z,950.62
2022-09-01T08:25:16.541Z,973.12
2022-09-01T08:26:16.651Z,1012.50
2022-09-01T08:27:16.863Z,1046.25
2022-09-01T08:28:17.224Z,1080.00
2022-09-01T08:29:18.001Z,1141.88
2022-09-01T08:30:17.152Z,1231.88
2022-09-01T08:31:17.280Z,1344.38
2022-09-01T08:32:17.564Z,1518.75
2022-09-01T08:33:17.503Z,1698.75
2022-09-01T08:34:17.641Z,1828.12
2022-09-01T08:35:17.791Z,2041.88
2022-09-01T08:36:21.594Z,2221.88
2022-09-01T08:37:19.288Z,2469.38
2022-09-01T08:38:18.157Z,2666.25
2022-09-01T08:39:18.230Z,3183.75
2022-09-01T08:40:18.457Z,3555.00
2022-09-01T08:41:18.425Z,3982.50
2022-09-01T08:42:18.660Z,4235.62
2022-09-01T08:43:18.850Z,4404.38
2022-09-01T08:44:19.323Z,4432.50
2022-09-01T08:45:18.962Z,4533.75
2022-09-01T08:46:19.087Z,4528.12
2022-09-01T08:47:28.694Z,4606.88
2022-09-01T08:49:09.852Z,4618.12
2022-09-01T08:49:28.152Z,4826.25
2022-09-01T08:50:20.531Z,5146.88
2022-09-01T08:51:20.517Z,5371.88
2022-09-01T08:52:19.822Z,5625.00
2022-09-01T08:53:20.579Z,5934.38
2022-09-01T08:54:29.276Z,5990.62
2022-09-01T08:55:22.044Z,6508.12
2022-09-01T08:56:20.328Z,6508.12
2022-09-01T08:57:20.439Z,6643.12
2022-09-01T08:58:20.684Z,6896.25
2022-09-01T08:59:20.801Z,7042.50
2022-09-01T09:00:20.850Z,7233.75
2022-09-01T09:01:20.976Z,7256.25
2022-09-01T09:02:21.111Z,7160.62
2022-09-01T09:03:21.234Z,7098.75
2022-09-01T09:04:21.488Z,7481.25
2022-09-01T09:05:21.448Z,7762.50
2022-09-01T09:06:21.562Z,7818.75
2022-09-01T09:07:21.649Z,8150.62
2022-09-01T09:08:21.808Z,8353.12
2022-09-01T09:09:32.352Z,8038.12
2022-09-01T09:10:23.058Z,8246.25
2022-09-01T09:11:22.191Z,8341.88
2022-09-01T09:12:22.369Z,7678.12
2022-09-01T09:13:22.518Z,7239.38
2022-09-01T09:14:22.893Z,6817.50
2022-09-01T09:15:22.767Z,6041.25
2022-09-01T09:16:22.934Z,5765.62
2022-09-01T09:17:22.958Z,5720.62
2022-09-01T09:18:39.223Z,5540.62
2022-09-01T09:19:24.298Z,5242.50
2022-09-01T09:20:23.336Z,5017.50
2022-09-01T09:21:23.457Z,5079.38
2022-09-01T09:22:23.597Z,4899.38
2022-09-01T09:23:23.850Z,4651.88
2022-09-01T09:24:23.827Z,4584.38
2022-09-01T09:25:23.926Z,4471.88
2022-09-01T09:26:24.066Z,4415.62
2022-09-01T09:27:24.215Z,4381.88
2022-09-01T09:28:25.683Z,4455.00
2022-09-01T09:29:24.488Z,4640.62
2022-09-01T09:30:24.829Z,4567.50
2022-09-01T09:31:24.756Z,4381.88
2022-09-01T09:32:35.510Z,4145.62
2022-09-01T09:33:47.847Z,4016.25
2022-09-01T09:34:26.285Z,3988.12
2022-09-01T09:35:25.215Z,3791.25
2022-09-01T09:36:25.324Z,3678.75
2022-09-01T09:37:25.445Z,3920.62
2022-09-01T09:38:25.566Z,3819.38
2022-09-01T09:39:25.656Z,4162.50
2022-09-01T09:40:26.109Z,4235.62
2022-09-01T09:41:27.160Z,4021.88
2022-09-01T09:42:29.891Z,4151.25
2022-09-01T09:43:28.203Z,3982.50
2022-09-01T09:44:26.347Z,3667.50
2022-09-01T09:45:26.557Z,3504.38
2022-09-01T09:46:26.667Z,3290.62
2022-09-01T09:47:42.813Z,2981.25
2022-09-01T09:48:28.925Z,3076.88
2022-09-01T09:49:35.212Z,3296.25
2022-09-01T09:50:28.233Z,3493.12
2022-09-01T09:51:28.915Z,3611.25
2022-09-01T09:52:27.285Z,3858.75
2022-09-01T09:53:27.383Z,3937.50
2022-09-01T09:54:27.606Z,3993.75
2022-09-01T09:55:27.667Z,3774.38
2022-09-01T09:56:27.765Z,3673.12
2022-09-01T09:57:27.905Z,3510.00
2022-09-01T09:58:28.013Z,3313.12
2022-09-01T09:59:53.650Z,3037.50
2022-09-01T10:00:29.268Z,3003.75
2022-09-01T10:01:28.467Z,3031.88
2022-09-01T10:02:28.554Z,3009.38
2022-09-01T10:03:29.093Z,2986.88
2022-09-01T10:04:28.873Z,3020.62
2022-09-01T10:05:30.057Z,2986.88
2022-09-01T10:06:28.957Z,3093.75
2022-09-01T10:07:29.129Z,3206.25
2022-09-01T10:08:29.254Z,3195.00
2022-09-01T10:09:29.583Z,3166.88
2022-09-01T10:10:29.513Z,3251.25
2022-09-01T10:11:35.403Z,3217.50
2022-09-01T10:12:30.792Z,3245.62
2022-09-01T10:13:32.453Z,3183.75
2022-09-01T10:14:51.968Z,3020.62
2022-09-01T10:15:31.252Z,2874.38
2022-09-01T10:16:32.124Z,2930.62
2022-09-01T10:17:30.498Z,2913.75
2022-09-01T10:18:30.560Z,2806.88
2022-09-01T10:19:35.545Z,2902.50
2022-09-01T10:20:31.801Z,2835.00
2022-09-01T10:21:30.904Z,2863.12
2022-09-01T10:22:32.848Z,2818.12
2022-09-01T10:23:31.670Z,2986.88
2022-09-01T10:24:31.256Z,3251.25
2022-09-01T10:25:32.491Z,3234.38
2022-09-01T10:26:31.451Z,3206.25
2022-09-01T10:27:31.732Z,3150.00
2022-09-01T10:28:31.740Z,2913.75
2022-09-01T10:29:34.790Z,2835.00
2022-09-01T10:30:32.098Z,2745.00
2022-09-01T10:31:32.753Z,2801.25
2022-09-01T10:32:38.261Z,2851.88
2022-09-01T10:33:33.402Z,2936.25
2022-09-01T10:34:32.520Z,3031.88
2022-09-01T10:35:32.620Z,3144.38
2022-09-01T10:36:32.719Z,3245.62
2022-09-01T10:37:32.957Z,3144.38
2022-09-01T10:38:33.250Z,3240.00
2022-09-01T10:39:36.795Z,3195.00
2022-09-01T10:40:34.246Z,3065.62
2022-09-01T10:41:35.698Z,3133.12
2022-09-01T10:42:33.628Z,3093.75
2022-09-01T10:43:36.229Z,3183.75
2022-09-01T10:44:33.659Z,3183.75
2022-09-01T10:45:33.758Z,3065.62
2022-09-01T10:46:42.263Z,2998.12
2022-09-01T10:47:35.112Z,3020.62
2022-09-01T10:48:46.278Z,3076.88
2022-09-01T10:49:35.260Z,3054.38
2022-09-01T10:50:35.825Z,3324.38
2022-09-01T10:51:38.257Z,3571.88
2022-09-01T10:52:35.289Z,3645.00
2022-09-01T10:53:34.918Z,3881.25
2022-09-01T10:54:37.238Z,3909.38
2022-09-01T10:55:34.999Z,3661.88
2022-09-01T10:56:36.540Z,3234.38
2022-09-01T10:57:35.227Z,3060.00
2022-09-01T10:59:41.901Z,3290.62
2022-09-01T11:00:37.250Z,3470.62
2022-09-01T11:01:47.860Z,3853.12
2022-09-01T11:02:42.352Z,3864.38
2022-09-01T11:03:47.110Z,4224.38
2022-09-01T11:04:37.125Z,4325.62
2022-09-01T11:05:36.146Z,4218.75
2022-09-01T11:06:36.315Z,4235.62
2022-09-01T11:08:00.088Z,4342.50
2022-09-01T11:08:37.677Z,4443.75
2022-09-01T11:09:36.666Z,4888.12
2022-09-01T11:10:36.805Z,4831.88
2022-09-01T11:11:36.995Z,3915.00
2022-09-01T11:12:37.056Z,4657.50
2022-09-01T11:13:37.144Z,4573.12
2022-09-01T11:14:37.276Z,3639.38
2022-09-01T11:15:37.385Z,3307.50
2022-09-01T11:16:53.215Z,3071.25
2022-09-01T11:17:38.706Z,2925.00
2022-09-01T11:18:37.733Z,2880.00
2022-09-01T11:19:37.880Z,2874.38
2022-09-01T11:20:37.973Z,2857.50
2022-09-01T11:21:38.297Z,2829.38
2022-09-01T11:22:38.325Z,2761.88
2022-09-01T11:23:38.364Z,2761.88
2022-09-01T11:24:38.473Z,2660.62
2022-09-01T11:25:39.489Z,2761.88
2022-09-01T11:26:38.773Z,2103.75
2022-09-01T11:27:39.092Z,2553.75
2022-09-01T11:28:38.994Z,2655.00
2022-09-01T11:29:39.101Z,2716.88
2022-09-01T11:30:39.261Z,2632.50
2022-09-01T11:31:39.392Z,2610.00
2022-09-01T11:32:44.885Z,2289.38
2022-09-01T11:33:40.566Z,2086.88
2022-09-01T11:34:39.694Z,1923.75
2022-09-01T11:35:39.801Z,2700.00
2022-09-01T11:36:39.913Z,1524.38
2022-09-01T11:37:40.052Z,1389.38
2022-09-01T11:38:40.202Z,2806.88
2022-09-01T11:39:40.311Z,1726.88
2022-09-01T11:40:40.490Z,2278.12
2022-09-01T11:41:40.531Z,1828.12
2022-09-01T11:42:40.660Z,2013.75
2022-09-01T11:43:41.824Z,652.50
2022-09-01T11:44:40.937Z,1428.75
2022-09-01T11:45:41.019Z,1676.25
2022-09-01T11:46:41.165Z,1653.75
2022-09-01T11:47:41.294Z,2109.38
2022-09-01T11:48:41.363Z,2300.62
2022-09-01T11:49:41.499Z,2154.38
2022-09-01T11:50:41.623Z,2115.00
2022-09-01T11:51:41.711Z,1749.38
2022-09-01T11:52:42.022Z,1816.88
2022-09-01T11:53:41.961Z,1732.50
2022-09-01T11:54:42.160Z,1698.75
2022-09-01T11:55:42.272Z,2576.25
2022-09-01T11:56:42.371Z,2452.50
2022-09-01T11:57:42.508Z,2548.12
2022-09-01T11:58:42.610Z,2463.75
2022-09-01T11:59:42.711Z,2536.88
2022-09-01T12:00:42.831Z,2430.00
2022-09-01T12:01:42.920Z,2463.75
2022-09-01T12:02:43.199Z,2503.12
2022-09-01T12:03:43.450Z,1631.25
2022-09-01T12:04:43.363Z,2334.38
2022-09-01T12:05:43.472Z,1614.38
2022-09-01T12:06:43.726Z,1659.38
2022-09-01T12:07:43.809Z,1327.50
2022-09-01T12:08:43.861Z,1490.62
2022-09-01T12:09:43.984Z,1395.00
2022-09-01T12:10:44.092Z,1158.75
2022-09-01T12:11:44.340Z,1254.38
2022-09-01T12:12:44.391Z,1586.25
2022-09-01T12:13:44.430Z,1833.75
2022-09-01T12:15:04.825Z,1783.12
2022-09-01T12:16:14.175Z,1732.50
2022-09-01T12:16:45.879Z,1620.00
2022-09-01T12:17:44.930Z,1372.50
2022-09-01T12:18:45.039Z,1434.38
2022-09-01T12:19:45.148Z,2030.62
2022-09-01T12:20:45.322Z,1890.00
2022-09-01T12:21:45.389Z,2160.00
2022-09-01T12:22:45.701Z,1614.38
2022-09-01T12:23:45.637Z,1237.50
2022-09-01T12:24:45.799Z,928.12
2022-09-01T12:25:45.909Z,821.25
2022-09-01T12:26:46.019Z,832.50
2022-09-01T12:27:46.309Z,883.12
2022-09-01T12:28:46.239Z,928.12
2022-09-01T12:29:46.396Z,967.50
2022-09-01T12:30:46.479Z,1108.12
2022-09-01T12:31:46.737Z,1125.00
2022-09-01T12:32:46.898Z,624.38
2022-09-01T12:33:47.137Z,652.50
2022-09-01T12:34:47.015Z,748.12
2022-09-01T12:35:47.118Z,720.00
2022-09-01T12:37:47.473Z,753.75
2022-09-01T12:38:47.478Z,714.38
2022-09-01T12:39:47.600Z,641.25
2022-09-01T12:40:48.382Z,568.12
2022-09-01T12:41:48.590Z,579.38
2022-09-01T12:42:47.960Z,618.75
2022-09-01T12:43:52.026Z,376.88
2022-09-01T12:44:50.621Z,365.62
2022-09-01T12:45:48.382Z,540.00
2022-09-01T12:46:48.427Z,466.88
2022-09-01T12:47:50.243Z,579.38
2022-09-01T12:48:49.559Z,613.12
2022-09-01T12:49:51.996Z,652.50
2022-09-01T12:50:48.916Z,826.88
2022-09-01T12:51:49.057Z,697.50
2022-09-01T12:52:49.743Z,691.88
2022-09-01T12:53:49.368Z,686.25
2022-09-01T12:54:49.417Z,776.25
2022-09-01T12:55:49.537Z,759.38
2022-09-01T12:56:49.637Z,753.75
2022-09-01T12:57:49.729Z,652.50
2022-09-01T12:58:49.957Z,826.88
2022-09-01T12:59:49.997Z,894.38
2022-09-01T13:00:50.188Z,877.50
2022-09-01T13:01:51.028Z,815.62
2022-09-01T13:02:50.441Z,663.75